sensor_id;sensor_type;location;lat;lon;timestamp;P1;durP1;ratioP1;P2;durP2;ratioP2
42364;SDS011;28498;54.400;18.566;2023-04-01T00:00:03;34.95;;;10.15;;
42364;SDS011;28498;54.400;18.566;2023-04-01T00:02:30;46.22;;;10.13;;
42364;SDS011;28498;54.400;18.566;2023-04-01T00:04:58;58.63;;;10.05;;
42364;SDS011;28498;54.400;18.566;2023-04-01T00:07:24;57.83;;;11.15;;
42364;SDS011;28498;54.400;18.566;2023-04-01T00:09:56;26.08;;;9.07;;
42364;SDS011;28498;54.400;18.566;2023-04-01T00:12:22;25.08;;;7.93;;
42364;SDS011;28498;54.400;18.566;2023-04-01T00:14:51;52.50;;;10.20;;
42364;SDS011;28498;54.400;18.566;2023-04-01T00:17:18;66.63;;;12.00;;
42364;SDS011;28498;54.400;18.566;2023-04-01T00:19:45;41.22;;;9.52;;
42364;SDS011;28498;54.400;18.566;2023-04-01T00:22:12;62.63;;;11.10;;
42364;SDS011;28498;54.400;18.566;2023-04-01T00:24:39;46.50;;;10.40;;
42364;SDS011;28498;54.400;18.566;2023-04-01T00:27:06;56.65;;;10.63;;
42364;SDS011;28498;54.400;18.566;2023-04-01T00:29:34;35.58;;;9.07;;
42364;SDS011;28498;54.400;18.566;2023-04-01T00:32:01;39.30;;;10.93;;
42364;SDS011;28498;54.400;18.566;2023-04-01T00:34:28;48.63;;;11.02;;
42364;SDS011;28498;54.400;18.566;2023-04-01T00:36:55;52.45;;;10.32;;
42364;SDS011;28498;54.400;18.566;2023-04-01T00:39:22;47.85;;;9.02;;
42364;SDS011;28498;54.400;18.566;2023-04-01T00:41:49;80.32;;;13.73;;
42364;SDS011;28498;54.400;18.566;2023-04-01T00:44:21;51.42;;;11.95;;
42364;SDS011;28498;54.400;18.566;2023-04-01T00:46:53;35.97;;;12.45;;
42364;SDS011;28498;54.400;18.566;2023-04-01T00:49:22;38.53;;;11.55;;
42364;SDS011;28498;54.400;18.566;2023-04-01T00:51:52;41.25;;;13.50;;
42364;SDS011;28498;54.400;18.566;2023-04-01T00:54:22;35.50;;;12.93;;
42364;SDS011;28498;54.400;18.566;2023-04-01T00:57:12;33.17;;;13.40;;
42364;SDS011;28498;54.400;18.566;2023-04-01T01:00:00;36.53;;;13.35;;
42364;SDS011;28498;54.400;18.566;2023-04-01T01:02:27;38.60;;;15.00;;
42364;SDS011;28498;54.400;18.566;2023-04-01T01:04:54;35.28;;;14.27;;
42364;SDS011;28498;54.400;18.566;2023-04-01T01:15:48;38.92;;;16.45;;
42364;SDS011;28498;54.400;18.566;2023-04-01T01:18:39;36.28;;;16.00;;
42364;SDS011;28498;54.400;18.566;2023-04-01T01:26:53;35.17;;;15.02;;
42364;SDS011;28498;54.400;18.566;2023-04-01T01:35:34;23.10;;;11.88;;
42364;SDS011;28498;54.400;18.566;2023-04-01T01:38:24;25.95;;;12.00;;
42364;SDS011;28498;54.400;18.566;2023-04-01T01:40:55;23.58;;;12.32;;
42364;SDS011;28498;54.400;18.566;2023-04-01T01:43:25;21.88;;;12.50;;
42364;SDS011;28498;54.400;18.566;2023-04-01T01:45:58;23.50;;;12.18;;
42364;SDS011;28498;54.400;18.566;2023-04-01T01:48:29;21.58;;;11.23;;
42364;SDS011;28498;54.400;18.566;2023-04-01T01:50:57;20.73;;;11.85;;
42364;SDS011;28498;54.400;18.566;2023-04-01T01:53:25;22.88;;;11.40;;
42364;SDS011;28498;54.400;18.566;2023-04-01T01:55:51;21.42;;;11.57;;
42364;SDS011;28498;54.400;18.566;2023-04-01T01:58:26;18.75;;;10.82;;
42364;SDS011;28498;54.400;18.566;2023-04-01T02:00:59;20.25;;;10.80;;
42364;SDS011;28498;54.400;18.566;2023-04-01T02:03:28;18.58;;;10.45;;
42364;SDS011;28498;54.400;18.566;2023-04-01T02:05:59;19.95;;;10.50;;
42364;SDS011;28498;54.400;18.566;2023-04-01T02:08:29;14.57;;;8.85;;
42364;SDS011;28498;54.400;18.566;2023-04-01T02:11:04;20.05;;;10.30;;
42364;SDS011;28498;54.400;18.566;2023-04-01T02:13:35;17.90;;;9.88;;
42364;SDS011;28498;54.400;18.566;2023-04-01T02:16:10;18.38;;;9.63;;
42364;SDS011;28498;54.400;18.566;2023-04-01T02:18:40;20.92;;;9.77;;
42364;SDS011;28498;54.400;18.566;2023-04-01T02:21:09;17.77;;;9.73;;
42364;SDS011;28498;54.400;18.566;2023-04-01T02:23:38;14.88;;;8.55;;
42364;SDS011;28498;54.400;18.566;2023-04-01T02:26:06;14.82;;;8.20;;
42364;SDS011;28498;54.400;18.566;2023-04-01T02:28:36;13.43;;;8.80;;
42364;SDS011;28498;54.400;18.566;2023-04-01T02:31:07;14.45;;;9.18;;
42364;SDS011;28498;54.400;18.566;2023-04-01T02:33:39;15.15;;;8.38;;
42364;SDS011;28498;54.400;18.566;2023-04-01T02:36:10;14.05;;;7.10;;
42364;SDS011;28498;54.400;18.566;2023-04-01T02:38:39;14.40;;;8.88;;
42364;SDS011;28498;54.400;18.566;2023-04-01T02:41:07;12.98;;;7.35;;
42364;SDS011;28498;54.400;18.566;2023-04-01T02:43:34;11.63;;;6.95;;
42364;SDS011;28498;54.400;18.566;2023-04-01T02:46:01;13.07;;;7.63;;
42364;SDS011;28498;54.400;18.566;2023-04-01T02:48:28;13.80;;;8.02;;
42364;SDS011;28498;54.400;18.566;2023-04-01T02:50:55;10.60;;;6.72;;
42364;SDS011;28498;54.400;18.566;2023-04-01T02:53:22;14.38;;;7.45;;
42364;SDS011;28498;54.400;18.566;2023-04-01T02:55:49;10.98;;;7.10;;
42364;SDS011;28498;54.400;18.566;2023-04-01T02:58:18;11.35;;;6.22;;
42364;SDS011;28498;54.400;18.566;2023-04-01T03:00:45;14.43;;;7.22;;
42364;SDS011;28498;54.400;18.566;2023-04-01T03:03:12;13.18;;;7.50;;
42364;SDS011;28498;54.400;18.566;2023-04-01T03:05:40;11.90;;;7.30;;
42364;SDS011;28498;54.400;18.566;2023-04-01T03:08:07;13.57;;;8.00;;
42364;SDS011;28498;54.400;18.566;2023-04-01T03:10:33;12.23;;;7.05;;
42364;SDS011;28498;54.400;18.566;2023-04-01T03:13:01;15.95;;;8.02;;
42364;SDS011;28498;54.400;18.566;2023-04-01T03:15:28;13.82;;;7.78;;
42364;SDS011;28498;54.400;18.566;2023-04-01T03:17:54;12.90;;;7.30;;
42364;SDS011;28498;54.400;18.566;2023-04-01T03:20:21;15.52;;;8.02;;
42364;SDS011;28498;54.400;18.566;2023-04-01T03:22:48;10.77;;;7.15;;
42364;SDS011;28498;54.400;18.566;2023-04-01T03:25:15;12.57;;;7.03;;
42364;SDS011;28498;54.400;18.566;2023-04-01T03:27:43;13.43;;;7.60;;
42364;SDS011;28498;54.400;18.566;2023-04-01T03:30:11;12.65;;;8.32;;
42364;SDS011;28498;54.400;18.566;2023-04-01T03:32:38;11.88;;;7.78;;
42364;SDS011;28498;54.400;18.566;2023-04-01T03:35:05;13.70;;;8.00;;
42364;SDS011;28498;54.400;18.566;2023-04-01T03:37:32;11.95;;;7.30;;
42364;SDS011;28498;54.400;18.566;2023-04-01T03:40:00;17.85;;;9.88;;
42364;SDS011;28498;54.400;18.566;2023-04-01T03:42:27;17.67;;;8.93;;
42364;SDS011;28498;54.400;18.566;2023-04-01T03:44:54;15.18;;;8.30;;
42364;SDS011;28498;54.400;18.566;2023-04-01T03:47:21;17.25;;;9.02;;
42364;SDS011;28498;54.400;18.566;2023-04-01T03:49:48;14.23;;;9.07;;
42364;SDS011;28498;54.400;18.566;2023-04-01T03:52:14;15.13;;;9.05;;
42364;SDS011;28498;54.400;18.566;2023-04-01T03:54:41;21.48;;;10.35;;
42364;SDS011;28498;54.400;18.566;2023-04-01T03:57:08;17.15;;;10.07;;
42364;SDS011;28498;54.400;18.566;2023-04-01T03:59:35;18.63;;;9.57;;
42364;SDS011;28498;54.400;18.566;2023-04-01T04:02:03;20.80;;;10.25;;
42364;SDS011;28498;54.400;18.566;2023-04-01T04:04:30;21.98;;;10.93;;
42364;SDS011;28498;54.400;18.566;2023-04-01T04:06:57;26.95;;;12.60;;
42364;SDS011;28498;54.400;18.566;2023-04-01T04:09:24;20.73;;;12.48;;
42364;SDS011;28498;54.400;18.566;2023-04-01T04:11:51;22.58;;;13.15;;
42364;SDS011;28498;54.400;18.566;2023-04-01T04:14:18;22.33;;;13.00;;
42364;SDS011;28498;54.400;18.566;2023-04-01T04:16:45;22.13;;;13.23;;
42364;SDS011;28498;54.400;18.566;2023-04-01T04:19:12;21.30;;;11.73;;
42364;SDS011;28498;54.400;18.566;2023-04-01T04:21:39;18.92;;;11.23;;
42364;SDS011;28498;54.400;18.566;2023-04-01T04:24:07;19.00;;;11.25;;
42364;SDS011;28498;54.400;18.566;2023-04-01T04:26:34;21.42;;;11.32;;
42364;SDS011;28498;54.400;18.566;2023-04-01T04:29:02;18.83;;;10.98;;
42364;SDS011;28498;54.400;18.566;2023-04-01T04:31:29;22.33;;;10.55;;
42364;SDS011;28498;54.400;18.566;2023-04-01T04:33:56;20.08;;;11.35;;
42364;SDS011;28498;54.400;18.566;2023-04-01T04:36:26;19.25;;;10.93;;
42364;SDS011;28498;54.400;18.566;2023-04-01T04:38:53;24.35;;;10.43;;
42364;SDS011;28498;54.400;18.566;2023-04-01T04:41:20;20.85;;;10.15;;
42364;SDS011;28498;54.400;18.566;2023-04-01T04:43:52;20.67;;;9.23;;
42364;SDS011;28498;54.400;18.566;2023-04-01T04:46:21;17.00;;;9.13;;
42364;SDS011;28498;54.400;18.566;2023-04-01T04:48:49;22.08;;;10.90;;
42364;SDS011;28498;54.400;18.566;2023-04-01T04:51:17;17.27;;;9.85;;
42364;SDS011;28498;54.400;18.566;2023-04-01T04:53:44;23.05;;;10.35;;
42364;SDS011;28498;54.400;18.566;2023-04-01T04:56:12;24.20;;;11.65;;
42364;SDS011;28498;54.400;18.566;2023-04-01T04:58:39;32.53;;;11.18;;
42364;SDS011;28498;54.400;18.566;2023-04-01T05:01:10;20.73;;;9.50;;
42364;SDS011;28498;54.400;18.566;2023-04-01T05:03:38;38.15;;;13.57;;
42364;SDS011;28498;54.400;18.566;2023-04-01T05:06:06;107.13;;;36.45;;
42364;SDS011;28498;54.400;18.566;2023-04-01T05:08:35;36.90;;;15.50;;
42364;SDS011;28498;54.400;18.566;2023-04-01T05:11:02;105.80;;;31.30;;
42364;SDS011;28498;54.400;18.566;2023-04-01T05:13:30;46.83;;;10.75;;
42364;SDS011;28498;54.400;18.566;2023-04-01T05:15:56;58.58;;;11.20;;
42364;SDS011;28498;54.400;18.566;2023-04-01T05:18:23;29.45;;;10.82;;
42364;SDS011;28498;54.400;18.566;2023-04-01T05:20:51;37.10;;;14.52;;
42364;SDS011;28498;54.400;18.566;2023-04-01T05:23:20;60.60;;;11.23;;
42364;SDS011;28498;54.400;18.566;2023-04-01T05:25:48;46.65;;;14.93;;
42364;SDS011;28498;54.400;18.566;2023-04-01T05:28:17;35.35;;;9.68;;
42364;SDS011;28498;54.400;18.566;2023-04-01T05:30:44;48.15;;;10.85;;
42364;SDS011;28498;54.400;18.566;2023-04-01T05:33:12;56.47;;;11.07;;
42364;SDS011;28498;54.400;18.566;2023-04-01T05:35:39;40.67;;;9.95;;
42364;SDS011;28498;54.400;18.566;2023-04-01T05:38:06;30.35;;;9.98;;
42364;SDS011;28498;54.400;18.566;2023-04-01T05:40:33;39.35;;;9.80;;
42364;SDS011;28498;54.400;18.566;2023-04-01T05:43:01;31.25;;;9.30;;
42364;SDS011;28498;54.400;18.566;2023-04-01T05:45:28;48.25;;;9.65;;
42364;SDS011;28498;54.400;18.566;2023-04-01T05:47:55;30.13;;;8.77;;
42364;SDS011;28498;54.400;18.566;2023-04-01T05:50:22;33.70;;;8.18;;
42364;SDS011;28498;54.400;18.566;2023-04-01T05:52:49;33.88;;;8.57;;
42364;SDS011;28498;54.400;18.566;2023-04-01T05:55:16;38.88;;;9.18;;
42364;SDS011;28498;54.400;18.566;2023-04-01T05:57:44;66.47;;;10.90;;
42364;SDS011;28498;54.400;18.566;2023-04-01T06:00:12;46.90;;;8.10;;
42364;SDS011;28498;54.400;18.566;2023-04-01T06:02:39;22.20;;;7.30;;
42364;SDS011;28498;54.400;18.566;2023-04-01T06:07:46;32.83;;;9.00;;
42364;SDS011;28498;54.400;18.566;2023-04-01T06:10:18;26.33;;;7.15;;
42364;SDS011;28498;54.400;18.566;2023-04-01T06:21:25;11.60;;;6.00;;
42364;SDS011;28498;54.400;18.566;2023-04-01T06:38:01;9.40;;;3.80;;
42364;SDS011;28498;54.400;18.566;2023-04-01T06:43:15;9.27;;;4.20;;
42364;SDS011;28498;54.400;18.566;2023-04-01T06:46:23;9.80;;;4.10;;
42364;SDS011;28498;54.400;18.566;2023-04-01T06:49:02;11.73;;;4.40;;
42364;SDS011;28498;54.400;18.566;2023-04-01T06:54:34;11.07;;;4.45;;
42364;SDS011;28498;54.400;18.566;2023-04-01T06:57:16;13.68;;;4.40;;
42364;SDS011;28498;54.400;18.566;2023-04-01T06:59:46;10.60;;;5.18;;
42364;SDS011;28498;54.400;18.566;2023-04-01T07:02:25;9.48;;;4.45;;
42364;SDS011;28498;54.400;18.566;2023-04-01T07:05:01;13.68;;;4.72;;
42364;SDS011;28498;54.400;18.566;2023-04-01T07:07:36;12.55;;;5.38;;
42364;SDS011;28498;54.400;18.566;2023-04-01T07:10:11;11.48;;;5.00;;
42364;SDS011;28498;54.400;18.566;2023-04-01T07:13:06;12.00;;;5.10;;
42364;SDS011;28498;54.400;18.566;2023-04-01T07:15:57;13.88;;;5.93;;
42364;SDS011;28498;54.400;18.566;2023-04-01T07:21:35;11.65;;;4.93;;
42364;SDS011;28498;54.400;18.566;2023-04-01T07:24:16;15.20;;;5.00;;
42364;SDS011;28498;54.400;18.566;2023-04-01T07:26:52;17.30;;;7.85;;
42364;SDS011;28498;54.400;18.566;2023-04-01T07:29:22;14.50;;;6.63;;
42364;SDS011;28498;54.400;18.566;2023-04-01T07:32:05;15.90;;;6.20;;
42364;SDS011;28498;54.400;18.566;2023-04-01T07:42:47;13.98;;;5.05;;
42364;SDS011;28498;54.400;18.566;2023-04-01T07:53:52;10.18;;;5.70;;
42364;SDS011;28498;54.400;18.566;2023-04-01T07:59:21;12.43;;;6.10;;
42364;SDS011;28498;54.400;18.566;2023-04-01T08:02:15;35.90;;;14.43;;
42364;SDS011;28498;54.400;18.566;2023-04-01T08:16:35;16.25;;;7.07;;
42364;SDS011;28498;54.400;18.566;2023-04-01T08:21:51;30.70;;;12.23;;
42364;SDS011;28498;54.400;18.566;2023-04-01T08:24:29;19.95;;;8.27;;
42364;SDS011;28498;54.400;18.566;2023-04-01T08:27:16;13.30;;;6.40;;
42364;SDS011;28498;54.400;18.566;2023-04-01T08:32:48;12.82;;;5.05;;
42364;SDS011;28498;54.400;18.566;2023-04-01T08:35:29;12.27;;;6.43;;
42364;SDS011;28498;54.400;18.566;2023-04-01T08:38:12;11.13;;;6.22;;
42364;SDS011;28498;54.400;18.566;2023-04-01T08:40:57;11.00;;;5.45;;
42364;SDS011;28498;54.400;18.566;2023-04-01T08:48:48;14.90;;;5.57;;
42364;SDS011;28498;54.400;18.566;2023-04-01T08:51:32;10.05;;;5.38;;
42364;SDS011;28498;54.400;18.566;2023-04-01T09:04:49;6.70;;;3.75;;
42364;SDS011;28498;54.400;18.566;2023-04-01T09:10:31;7.85;;;3.75;;
42364;SDS011;28498;54.400;18.566;2023-04-01T09:13:04;6.78;;;3.65;;
42364;SDS011;28498;54.400;18.566;2023-04-01T09:15:50;7.30;;;3.60;;
42364;SDS011;28498;54.400;18.566;2023-04-01T09:46:09;9.25;;;2.90;;
42364;SDS011;28498;54.400;18.566;2023-04-01T10:23:40;5.40;;;3.47;;
42364;SDS011;28498;54.400;18.566;2023-04-01T10:34:45;5.22;;;2.70;;
42364;SDS011;28498;54.400;18.566;2023-04-01T11:12:49;5.75;;;3.30;;
42364;SDS011;28498;54.400;18.566;2023-04-01T11:15:41;6.70;;;2.95;;
42364;SDS011;28498;54.400;18.566;2023-04-01T11:40:29;6.30;;;3.15;;
42364;SDS011;28498;54.400;18.566;2023-04-01T11:46:12;5.05;;;2.17;;
42364;SDS011;28498;54.400;18.566;2023-04-01T11:48:51;5.82;;;2.28;;
42364;SDS011;28498;54.400;18.566;2023-04-01T11:51:40;5.80;;;2.20;;
42364;SDS011;28498;54.400;18.566;2023-04-01T11:54:26;6.75;;;2.75;;
42364;SDS011;28498;54.400;18.566;2023-04-01T12:00:38;5.93;;;2.90;;
42364;SDS011;28498;54.400;18.566;2023-04-01T12:08:55;5.57;;;3.05;;
42364;SDS011;28498;54.400;18.566;2023-04-01T12:11:44;5.35;;;2.50;;
42364;SDS011;28498;54.400;18.566;2023-04-01T12:14:47;5.03;;;2.35;;
42364;SDS011;28498;54.400;18.566;2023-04-01T12:20:26;4.85;;;2.60;;
42364;SDS011;28498;54.400;18.566;2023-04-01T12:26:22;4.43;;;2.10;;
42364;SDS011;28498;54.400;18.566;2023-04-01T12:37:58;3.50;;;2.03;;
42364;SDS011;28498;54.400;18.566;2023-04-01T12:52:31;5.78;;;2.53;;
42364;SDS011;28498;54.400;18.566;2023-04-01T12:57:57;8.43;;;3.20;;
42364;SDS011;28498;54.400;18.566;2023-04-01T13:00:38;4.97;;;2.28;;
42364;SDS011;28498;54.400;18.566;2023-04-01T13:03:18;4.90;;;2.22;;
42364;SDS011;28498;54.400;18.566;2023-04-01T13:16:58;8.15;;;3.95;;
42364;SDS011;28498;54.400;18.566;2023-04-01T13:19:43;5.50;;;2.88;;
42364;SDS011;28498;54.400;18.566;2023-04-01T13:28:17;5.30;;;2.95;;
42364;SDS011;28498;54.400;18.566;2023-04-01T13:45:15;9.18;;;3.72;;
42364;SDS011;28498;54.400;18.566;2023-04-01T13:50:31;5.63;;;2.90;;
42364;SDS011;28498;54.400;18.566;2023-04-01T14:22:57;9.40;;;5.20;;
42364;SDS011;28498;54.400;18.566;2023-04-01T14:28:12;11.88;;;6.07;;
42364;SDS011;28498;54.400;18.566;2023-04-01T14:31:15;8.93;;;5.63;;
42364;SDS011;28498;54.400;18.566;2023-04-01T14:42:06;14.18;;;6.43;;
42364;SDS011;28498;54.400;18.566;2023-04-01T14:50:13;21.95;;;10.43;;
42364;SDS011;28498;54.400;18.566;2023-04-01T14:52:55;11.50;;;6.30;;
42364;SDS011;28498;54.400;18.566;2023-04-01T14:55:35;16.45;;;8.27;;
42364;SDS011;28498;54.400;18.566;2023-04-01T15:00:47;11.38;;;6.07;;
42364;SDS011;28498;54.400;18.566;2023-04-01T15:03:20;15.65;;;7.80;;
42364;SDS011;28498;54.400;18.566;2023-04-01T15:06:11;15.25;;;5.82;;
42364;SDS011;28498;54.400;18.566;2023-04-01T15:12:36;12.38;;;6.75;;
42364;SDS011;28498;54.400;18.566;2023-04-01T15:18:07;15.77;;;6.78;;
42364;SDS011;28498;54.400;18.566;2023-04-01T15:20:42;12.52;;;8.00;;
42364;SDS011;28498;54.400;18.566;2023-04-01T15:34:18;16.27;;;8.55;;
42364;SDS011;28498;54.400;18.566;2023-04-01T15:39:44;14.35;;;7.38;;
42364;SDS011;28498;54.400;18.566;2023-04-01T15:42:25;9.77;;;5.25;;
42364;SDS011;28498;54.400;18.566;2023-04-01T16:02:31;14.57;;;7.97;;
42364;SDS011;28498;54.400;18.566;2023-04-01T16:05:24;19.13;;;9.85;;
42364;SDS011;28498;54.400;18.566;2023-04-01T16:19:22;16.52;;;7.72;;
42364;SDS011;28498;54.400;18.566;2023-04-01T16:31:06;13.05;;;6.32;;
42364;SDS011;28498;54.400;18.566;2023-04-01T16:36:44;13.52;;;6.82;;
42364;SDS011;28498;54.400;18.566;2023-04-01T16:42:30;13.32;;;5.63;;
42364;SDS011;28498;54.400;18.566;2023-04-01T16:47:50;15.07;;;7.53;;
42364;SDS011;28498;54.400;18.566;2023-04-01T16:50:25;16.10;;;8.70;;
42364;SDS011;28498;54.400;18.566;2023-04-01T16:53:02;15.30;;;7.22;;
42364;SDS011;28498;54.400;18.566;2023-04-01T16:55:42;13.88;;;7.10;;
42364;SDS011;28498;54.400;18.566;2023-04-01T17:01:24;16.00;;;8.25;;
42364;SDS011;28498;54.400;18.566;2023-04-01T17:04:23;16.35;;;7.18;;
42364;SDS011;28498;54.400;18.566;2023-04-01T17:06:54;12.10;;;6.25;;
42364;SDS011;28498;54.400;18.566;2023-04-01T17:09:34;16.55;;;8.77;;
42364;SDS011;28498;54.400;18.566;2023-04-01T17:12:10;22.52;;;9.50;;
42364;SDS011;28498;54.400;18.566;2023-04-01T17:17:34;14.25;;;7.30;;
42364;SDS011;28498;54.400;18.566;2023-04-01T17:20:29;11.07;;;6.50;;
42364;SDS011;28498;54.400;18.566;2023-04-01T17:26:00;13.50;;;7.32;;
42364;SDS011;28498;54.400;18.566;2023-04-01T17:28:34;14.00;;;5.50;;
42364;SDS011;28498;54.400;18.566;2023-04-01T17:34:13;11.70;;;6.07;;
42364;SDS011;28498;54.400;18.566;2023-04-01T17:36:55;10.90;;;6.25;;
42364;SDS011;28498;54.400;18.566;2023-04-01T17:45:37;9.55;;;5.15;;
42364;SDS011;28498;54.400;18.566;2023-04-01T17:51:33;12.10;;;5.68;;
42364;SDS011;28498;54.400;18.566;2023-04-01T18:06:13;9.00;;;4.90;;
42364;SDS011;28498;54.400;18.566;2023-04-01T18:33:34;9.27;;;4.45;;
42364;SDS011;28498;54.400;18.566;2023-04-01T18:44:48;8.82;;;4.13;;
42364;SDS011;28498;54.400;18.566;2023-04-01T18:52:54;7.55;;;3.55;;
42364;SDS011;28498;54.400;18.566;2023-04-01T18:55:40;7.22;;;3.72;;
42364;SDS011;28498;54.400;18.566;2023-04-01T19:01:19;5.88;;;3.28;;
42364;SDS011;28498;54.400;18.566;2023-04-01T19:04:03;7.45;;;3.92;;
42364;SDS011;28498;54.400;18.566;2023-04-01T19:06:51;10.70;;;4.30;;
42364;SDS011;28498;54.400;18.566;2023-04-01T19:09:43;8.63;;;4.43;;
42364;SDS011;28498;54.400;18.566;2023-04-01T19:12:27;6.20;;;2.83;;
42364;SDS011;28498;54.400;18.566;2023-04-01T19:15:27;9.02;;;4.13;;
42364;SDS011;28498;54.400;18.566;2023-04-01T19:20:59;6.18;;;3.30;;
42364;SDS011;28498;54.400;18.566;2023-04-01T19:26:27;6.45;;;3.40;;
42364;SDS011;28498;54.400;18.566;2023-04-01T19:48:44;6.13;;;2.88;;
42364;SDS011;28498;54.400;18.566;2023-04-01T20:00:13;5.38;;;2.97;;
42364;SDS011;28498;54.400;18.566;2023-04-01T20:02:56;3.60;;;2.35;;
42364;SDS011;28498;54.400;18.566;2023-04-01T20:14:40;6.25;;;2.63;;
42364;SDS011;28498;54.400;18.566;2023-04-01T20:17:17;5.70;;;2.55;;
42364;SDS011;28498;54.400;18.566;2023-04-01T20:25:15;5.32;;;2.40;;
42364;SDS011;28498;54.400;18.566;2023-04-01T20:28:36;4.45;;;2.35;;
42364;SDS011;28498;54.400;18.566;2023-04-01T20:33:42;4.47;;;2.40;;
42364;SDS011;28498;54.400;18.566;2023-04-01T20:44:42;6.90;;;2.67;;
42364;SDS011;28498;54.400;18.566;2023-04-01T20:50:41;7.03;;;2.85;;
42364;SDS011;28498;54.400;18.566;2023-04-01T21:05:39;7.95;;;3.63;;
42364;SDS011;28498;54.400;18.566;2023-04-01T21:08:23;6.78;;;3.60;;
42364;SDS011;28498;54.400;18.566;2023-04-01T21:14:07;10.35;;;3.40;;
42364;SDS011;28498;54.400;18.566;2023-04-01T21:16:57;7.13;;;3.40;;
42364;SDS011;28498;54.400;18.566;2023-04-01T21:41:23;6.68;;;3.80;;
42364;SDS011;28498;54.400;18.566;2023-04-01T21:58:28;15.15;;;7.45;;
42364;SDS011;28498;54.400;18.566;2023-04-01T22:07:01;13.40;;;5.75;;
42364;SDS011;28498;54.400;18.566;2023-04-01T22:09:39;12.23;;;5.43;;
42364;SDS011;28498;54.400;18.566;2023-04-01T22:12:12;11.00;;;3.38;;
42364;SDS011;28498;54.400;18.566;2023-04-01T22:15:00;7.72;;;3.33;;
42364;SDS011;28498;54.400;18.566;2023-04-01T22:17:55;6.72;;;3.58;;
42364;SDS011;28498;54.400;18.566;2023-04-01T22:26:29;8.32;;;4.18;;
42364;SDS011;28498;54.400;18.566;2023-04-01T22:40:46;6.63;;;3.10;;
42364;SDS011;28498;54.400;18.566;2023-04-01T22:43:39;5.80;;;3.05;;
42364;SDS011;28498;54.400;18.566;2023-04-01T22:48:47;7.65;;;3.05;;
42364;SDS011;28498;54.400;18.566;2023-04-01T22:59:30;9.20;;;3.70;;
42364;SDS011;28498;54.400;18.566;2023-04-01T23:02:06;10.40;;;3.78;;
42364;SDS011;28498;54.400;18.566;2023-04-01T23:04:41;8.68;;;3.35;;
42364;SDS011;28498;54.400;18.566;2023-04-01T23:09:49;9.30;;;3.13;;
42364;SDS011;28498;54.400;18.566;2023-04-01T23:12:17;8.40;;;3.42;;
42364;SDS011;28498;54.400;18.566;2023-04-01T23:14:48;8.65;;;3.78;;
42364;SDS011;28498;54.400;18.566;2023-04-01T23:20:03;8.80;;;3.28;;
42364;SDS011;28498;54.400;18.566;2023-04-01T23:22:37;8.90;;;3.67;;
42364;SDS011;28498;54.400;18.566;2023-04-01T23:33:09;10.40;;;3.63;;
42364;SDS011;28498;54.400;18.566;2023-04-01T23:38:18;8.82;;;2.40;;
42364;SDS011;28498;54.400;18.566;2023-04-01T23:40:48;5.75;;;2.50;;
42364;SDS011;28498;54.400;18.566;2023-04-01T23:43:28;7.55;;;3.35;;
42364;SDS011;28498;54.400;18.566;2023-04-01T23:46:01;5.80;;;2.00;;
42364;SDS011;28498;54.400;18.566;2023-04-01T23:48:53;10.30;;;2.53;;
42364;SDS011;28498;54.400;18.566;2023-04-01T23:51:25;9.93;;;3.25;;
42364;SDS011;28498;54.400;18.566;2023-04-01T23:54:02;9.38;;;2.25;;
42364;SDS011;28498;54.400;18.566;2023-04-01T23:56:51;6.05;;;2.00;;
42364;SDS011;28498;54.400;18.566;2023-04-01T23:59:23;7.30;;;2.30;;
